createdAt,value
2018-05-03T00:02:02.135Z,10.70
2018-05-03T00:04:35.956Z,10.70
2018-05-03T00:07:10.504Z,10.60
2018-05-03T00:09:44.438Z,10.60
2018-05-03T00:12:19.035Z,10.60
2018-05-03T00:14:52.610Z,10.60
2018-05-03T00:17:26.501Z,10.60
2018-05-03T00:20:01.094Z,10.60
2018-05-03T00:22:35.451Z,10.50
2018-05-03T00:25:09.968Z,10.70
2018-05-03T00:27:44.415Z,10.70
2018-05-03T00:30:18.962Z,10.70
2018-05-03T00:32:53.638Z,10.70
2018-05-03T00:35:27.270Z,10.70
2018-05-03T00:38:00.998Z,10.70
2018-05-03T00:40:36.460Z,10.70
2018-05-03T00:43:10.375Z,10.70
2018-05-03T00:45:44.094Z,10.70
2018-05-03T00:48:18.094Z,10.80
2018-05-03T00:50:51.716Z,10.80
2018-05-03T00:53:25.509Z,10.70
2018-05-03T00:55:59.698Z,10.70
2018-05-03T00:58:34.306Z,10.60
2018-05-03T01:01:07.848Z,10.60
2018-05-03T01:03:42.384Z,10.60
2018-05-03T01:06:17.158Z,10.60
2018-05-03T01:08:52.615Z,10.60
2018-05-03T01:11:26.507Z,10.60
2018-05-03T01:14:00.959Z,10.60
2018-05-03T01:16:34.670Z,10.60
2018-05-03T01:19:09.406Z,10.70
2018-05-03T01:21:43.796Z,10.60
2018-05-03T01:24:17.679Z,10.60
2018-05-03T01:26:52.805Z,10.50
2018-05-03T01:29:27.275Z,10.50
2018-05-03T01:32:01.215Z,10.50
2018-05-03T01:34:35.782Z,10.40
2018-05-03T01:37:09.715Z,10.40
2018-05-03T01:39:43.742Z,10.40
2018-05-03T01:42:17.736Z,10.40
2018-05-03T01:44:52.381Z,10.40
2018-05-03T01:47:26.107Z,10.40
2018-05-03T01:50:00.548Z,10.40
2018-05-03T01:52:34.144Z,10.40
2018-05-03T01:55:07.749Z,10.40
2018-05-03T01:57:41.505Z,10.30
2018-05-03T02:00:15.563Z,10.30
2018-05-03T02:02:50.102Z,10.20
2018-05-03T02:05:24.856Z,10.30
2018-05-03T02:07:59.486Z,10.30
2018-05-03T02:10:33.875Z,10.30
2018-05-03T02:13:08.552Z,10.30
2018-05-03T02:15:43.711Z,10.40
2018-05-03T02:18:18.105Z,10.40
2018-05-03T02:20:51.969Z,10.40
2018-05-03T02:23:25.781Z,10.40
2018-05-03T02:26:00.202Z,10.40
2018-05-03T02:28:34.422Z,10.40
2018-05-03T02:31:09.226Z,10.40
2018-05-03T02:33:43.946Z,10.40
2018-05-03T02:36:18.231Z,10.30
2018-05-03T02:38:51.938Z,10.50
2018-05-03T02:41:25.737Z,10.50
2018-05-03T02:43:59.289Z,10.50
2018-05-03T02:46:33.318Z,10.40
2018-05-03T02:49:07.979Z,10.50
2018-05-03T02:51:41.678Z,10.50
2018-05-03T02:54:16.108Z,10.50
2018-05-03T02:56:49.683Z,10.50
2018-05-03T02:59:35.439Z,10.50
2018-05-03T03:02:15.340Z,10.50
2018-05-03T03:18:49.567Z,10.40
2018-05-03T03:21:40.846Z,10.40
2018-05-03T03:24:32.527Z,10.40
2018-05-03T03:27:25.307Z,10.50
2018-05-03T03:30:11.769Z,10.50
2018-05-03T03:32:57.487Z,10.40
2018-05-03T03:48:59.077Z,10.50
2018-05-03T03:51:32.834Z,10.50
2018-05-03T03:54:07.725Z,10.50
2018-05-03T03:56:41.318Z,10.50
2018-05-03T03:59:15.435Z,10.60
2018-05-03T04:01:49.122Z,10.50
2018-05-03T04:04:22.739Z,10.50
2018-05-03T04:06:56.675Z,10.40
2018-05-03T04:09:30.995Z,10.40
2018-05-03T04:12:05.160Z,10.40
2018-05-03T04:14:38.854Z,10.40
2018-05-03T04:17:13.261Z,10.40
2018-05-03T04:20:10.791Z,10.40
2018-05-03T04:22:54.375Z,10.40
2018-05-03T04:25:40.844Z,10.40
2018-05-03T04:28:14.422Z,10.40
2018-05-03T04:30:48.022Z,10.40
2018-05-03T04:33:21.528Z,10.30
2018-05-03T04:35:55.806Z,10.40
2018-05-03T04:38:29.694Z,10.30
2018-05-03T04:41:03.195Z,10.40
2018-05-03T04:43:36.819Z,10.40
2018-05-03T04:46:11.669Z,10.50
2018-05-03T04:48:45.175Z,10.50
2018-05-03T04:51:18.634Z,10.60
2018-05-03T04:53:53.150Z,10.70
2018-05-03T04:56:26.842Z,10.70
2018-05-03T04:59:01.182Z,10.80
2018-05-03T05:01:36.440Z,11.10
2018-05-03T05:04:10.077Z,11.10
2018-05-03T05:06:43.619Z,11.10
2018-05-03T05:09:17.247Z,11.10
2018-05-03T05:11:50.892Z,11.10
2018-05-03T05:14:25.770Z,11.30
2018-05-03T05:17:00.488Z,11.40
2018-05-03T05:19:35.011Z,11.50
2018-05-03T05:22:08.801Z,11.50
2018-05-03T05:24:43.304Z,11.50
2018-05-03T05:27:17.794Z,11.60
2018-05-03T05:29:52.374Z,11.70
2018-05-03T05:32:25.936Z,11.60
2018-05-03T05:34:59.666Z,11.60
2018-05-03T05:37:33.254Z,11.60
2018-05-03T05:40:07.181Z,11.70
2018-05-03T05:42:41.386Z,11.70
2018-05-03T05:45:16.005Z,11.80
2018-05-03T05:47:51.231Z,11.80
2018-05-03T05:50:25.040Z,11.80
2018-05-03T05:52:59.358Z,11.70
2018-05-03T05:55:34.000Z,11.70
2018-05-03T05:58:08.573Z,11.80
2018-05-03T06:00:42.675Z,11.70
2018-05-03T06:03:16.693Z,11.80
2018-05-03T06:05:51.535Z,11.80
2018-05-03T06:08:25.489Z,11.80
2018-05-03T06:10:59.112Z,11.80
2018-05-03T06:13:34.416Z,11.90
2018-05-03T06:16:08.153Z,11.90
2018-05-03T06:18:43.237Z,12.10
2018-05-03T06:21:17.647Z,12.10
2018-05-03T06:23:52.194Z,12.10
2018-05-03T06:26:26.015Z,12.10
2018-05-03T06:28:59.679Z,12.20
2018-05-03T06:31:33.949Z,12.30
2018-05-03T06:34:07.591Z,12.30
2018-05-03T06:36:41.098Z,12.40
2018-05-03T06:39:15.027Z,12.50
2018-05-03T06:41:49.479Z,12.70
2018-05-03T06:44:23.227Z,12.70
2018-05-03T06:46:57.797Z,12.70
2018-05-03T06:49:32.524Z,12.60
2018-05-03T06:52:06.902Z,12.60
2018-05-03T06:54:41.586Z,12.70
2018-05-03T06:57:15.999Z,12.80
2018-05-03T06:59:50.506Z,12.90
2018-05-03T07:02:24.851Z,13.00
2018-05-03T07:04:58.402Z,12.90
2018-05-03T07:07:32.446Z,12.90
2018-05-03T07:10:06.595Z,13.00
2018-05-03T07:12:40.362Z,12.90
2018-05-03T07:15:14.842Z,12.90
2018-05-03T07:17:48.502Z,12.90
2018-05-03T07:20:22.981Z,13.10
2018-05-03T07:22:57.370Z,13.00
2018-05-03T07:25:31.719Z,12.90
2018-05-03T07:28:05.557Z,12.80
2018-05-03T07:30:39.962Z,13.10
2018-05-03T07:33:13.632Z,13.00
2018-05-03T07:35:48.239Z,13.60
2018-05-03T07:38:22.594Z,13.50
2018-05-03T07:40:57.233Z,13.40
2018-05-03T07:43:30.699Z,13.40
2018-05-03T07:46:04.334Z,13.70
2018-05-03T07:48:37.999Z,14.10
2018-05-03T07:51:12.419Z,13.90
2018-05-03T07:53:46.268Z,13.90
2018-05-03T07:56:19.913Z,14.10
2018-05-03T07:58:53.532Z,14.30
2018-05-03T08:01:27.066Z,14.20
2018-05-03T08:04:01.426Z,13.70
2018-05-03T08:06:35.303Z,13.70
2018-05-03T08:09:09.054Z,13.60
2018-05-03T08:11:42.834Z,13.90
2018-05-03T08:14:16.580Z,13.90
2018-05-03T08:16:50.057Z,14.50
2018-05-03T08:19:23.664Z,14.80
2018-05-03T08:21:57.351Z,15.20
2018-05-03T08:24:31.197Z,14.80
2018-05-03T08:27:05.599Z,15.10
2018-05-03T08:29:39.373Z,15.10
2018-05-03T08:32:12.895Z,15.30
2018-05-03T08:34:46.496Z,15.80
2018-05-03T08:37:20.986Z,15.30
2018-05-03T08:39:55.378Z,15.10
2018-05-03T08:42:29.934Z,15.30
2018-05-03T08:45:03.572Z,15.30
2018-05-03T08:47:37.228Z,15.80
2018-05-03T08:50:11.784Z,16.00
2018-05-03T08:52:45.491Z,16.00
2018-05-03T08:55:19.866Z,16.10
2018-05-03T08:57:53.485Z,16.20
2018-05-03T09:00:27.219Z,16.60
2018-05-03T09:03:00.922Z,16.70
2018-05-03T09:05:35.435Z,16.10
2018-05-03T09:08:09.082Z,16.10
2018-05-03T09:10:42.834Z,16.30
2018-05-03T09:13:16.407Z,16.10
2018-05-03T09:15:50.304Z,16.00
2018-05-03T09:18:24.050Z,16.10
2018-05-03T09:20:57.734Z,16.40
2018-05-03T09:23:31.464Z,16.70
2018-05-03T09:26:05.317Z,16.60
2018-05-03T09:28:39.954Z,16.90
2018-05-03T09:31:14.433Z,16.80
2018-05-03T09:33:48.659Z,17.00
2018-05-03T09:36:22.351Z,17.00
2018-05-03T09:38:56.122Z,16.80
2018-05-03T09:41:29.854Z,16.40
2018-05-03T09:44:03.395Z,16.30
2018-05-03T09:46:37.182Z,15.90
2018-05-03T09:49:11.839Z,16.60
2018-05-03T09:51:45.619Z,16.60
2018-05-03T09:54:19.954Z,17.20
2018-05-03T09:56:53.648Z,17.20
2018-05-03T09:59:27.257Z,16.80
2018-05-03T10:02:00.858Z,16.40
2018-05-03T10:04:34.778Z,16.60
2018-05-03T10:07:08.483Z,17.10
2018-05-03T10:09:43.037Z,17.00
2018-05-03T10:12:18.223Z,17.40
2018-05-03T10:14:51.895Z,17.40
2018-05-03T10:17:25.552Z,17.60
2018-05-03T10:19:59.379Z,17.40
2018-05-03T10:22:33.253Z,17.60
2018-05-03T10:25:07.137Z,17.30
2018-05-03T10:27:40.870Z,17.40
2018-05-03T10:30:17.073Z,16.90
2018-05-03T10:32:50.599Z,16.90
2018-05-03T10:35:24.343Z,16.90
2018-05-03T10:37:57.903Z,17.40
2018-05-03T10:40:31.698Z,17.50
2018-05-03T10:43:06.081Z,17.20
2018-05-03T10:45:39.739Z,17.10
2018-05-03T10:48:18.164Z,16.50
2018-05-03T10:50:51.984Z,16.50
2018-05-03T10:53:25.513Z,16.20
2018-05-03T10:55:59.196Z,16.40
2018-05-03T10:58:32.903Z,16.60
2018-05-03T11:01:06.982Z,17.00
2018-05-03T11:03:42.166Z,16.70
2018-05-03T11:06:16.589Z,16.40
2018-05-03T11:08:51.111Z,16.30
2018-05-03T11:11:24.970Z,16.20
2018-05-03T11:13:58.571Z,16.60
2018-05-03T11:16:33.071Z,16.30
2018-05-03T11:19:07.377Z,16.80
2018-05-03T11:21:41.054Z,16.80
2018-05-03T11:24:14.812Z,17.10
2018-05-03T11:26:49.207Z,17.50
2018-05-03T11:29:22.930Z,17.50
2018-05-03T11:31:56.626Z,17.40
2018-05-03T11:34:30.446Z,17.20
2018-05-03T11:37:04.188Z,16.40
2018-05-03T11:39:38.654Z,16.30
2018-05-03T11:42:12.154Z,16.30
2018-05-03T11:44:48.542Z,16.20
2018-05-03T11:47:23.001Z,16.40
2018-05-03T11:49:57.650Z,16.50
2018-05-03T11:52:32.914Z,16.50
2018-05-03T11:55:06.768Z,16.50
2018-05-03T11:57:41.802Z,16.70
2018-05-03T12:00:15.407Z,16.70
2018-05-03T12:02:49.055Z,16.90
2018-05-03T12:05:22.555Z,16.70
2018-05-03T12:07:56.301Z,17.10
2018-05-03T12:10:30.960Z,17.40
2018-05-03T12:13:05.583Z,17.40
2018-05-03T12:15:40.024Z,17.50
2018-05-03T12:18:13.677Z,17.50
2018-05-03T12:20:47.532Z,17.50
2018-05-03T12:23:21.179Z,17.60
2018-05-03T12:25:54.857Z,17.70
2018-05-03T12:28:29.279Z,17.90
2018-05-03T12:31:03.816Z,18.20
2018-05-03T12:33:38.270Z,18.40
2018-05-03T12:36:12.008Z,18.40
2018-05-03T12:38:46.066Z,18.40
2018-05-03T12:41:19.739Z,18.70
2018-05-03T12:43:54.631Z,18.80
2018-05-03T12:46:28.314Z,18.80
2018-05-03T12:49:02.189Z,18.70
2018-05-03T12:51:36.033Z,19.70
2018-05-03T12:54:10.578Z,19.90
2018-05-03T12:56:44.489Z,19.90
2018-05-03T12:59:18.823Z,20.40
2018-05-03T13:01:53.345Z,20.00
2018-05-03T13:04:27.867Z,19.90
2018-05-03T13:07:02.158Z,20.90
2018-05-03T13:09:36.484Z,21.00
2018-05-03T13:12:11.012Z,20.50
2018-05-03T13:14:44.694Z,20.50
2018-05-03T13:17:18.371Z,19.90
2018-05-03T13:19:51.940Z,19.70
2018-05-03T13:22:25.527Z,20.40
2018-05-03T13:24:59.032Z,20.50
2018-05-03T13:27:32.657Z,21.00
2018-05-03T13:30:06.352Z,20.70
2018-05-03T13:32:40.769Z,21.20
2018-05-03T13:35:14.544Z,21.20
2018-05-03T13:37:49.063Z,21.40
2018-05-03T13:40:23.703Z,21.60
2018-05-03T13:42:57.431Z,21.60
2018-05-03T13:45:30.977Z,21.30
2018-05-03T13:48:06.137Z,22.00
2018-05-03T13:50:40.690Z,23.60
2018-05-03T13:53:14.323Z,23.50
2018-05-03T13:55:48.857Z,24.80
2018-05-03T13:58:22.659Z,24.80
2018-05-03T14:00:57.259Z,25.80
2018-05-03T14:03:31.015Z,25.80
2018-05-03T14:06:04.683Z,25.70
2018-05-03T14:08:38.578Z,24.00
2018-05-03T14:11:12.226Z,24.10
2018-05-03T14:13:46.163Z,23.80
2018-05-03T14:16:20.006Z,23.90
2018-05-03T14:18:53.574Z,23.50
2018-05-03T14:21:28.087Z,22.40
2018-05-03T14:24:01.779Z,22.30
2018-05-03T14:26:35.362Z,22.10
2018-05-03T14:29:08.967Z,22.30
2018-05-03T14:31:43.267Z,22.80
2018-05-03T14:34:17.059Z,22.70
2018-05-03T14:36:50.870Z,22.50
2018-05-03T14:39:24.601Z,22.30
2018-05-03T14:41:58.305Z,22.30
2018-05-03T14:44:31.980Z,22.20
2018-05-03T14:47:05.579Z,21.90
2018-05-03T14:49:39.383Z,21.60
2018-05-03T14:52:13.863Z,21.20
2018-05-03T14:54:47.582Z,21.10
2018-05-03T14:57:21.542Z,21.20
2018-05-03T14:59:55.392Z,21.40
2018-05-03T15:02:29.793Z,21.00
2018-05-03T15:05:03.732Z,21.00
2018-05-03T15:07:37.524Z,20.90
2018-05-03T15:10:11.307Z,20.80
2018-05-03T15:12:45.704Z,20.60
2018-05-03T15:15:20.015Z,20.40
2018-05-03T15:17:54.447Z,19.90
2018-05-03T15:20:29.248Z,19.40
2018-05-03T15:23:03.132Z,19.30
2018-05-03T15:25:36.970Z,19.30
2018-05-03T15:28:10.688Z,19.40
2018-05-03T15:30:44.637Z,19.40
2018-05-03T15:33:18.270Z,19.60
2018-05-03T15:35:52.095Z,19.90
2018-05-03T15:38:25.894Z,20.00
2018-05-03T15:41:00.363Z,19.90
2018-05-03T15:43:35.044Z,19.70
2018-05-03T15:46:08.638Z,19.70
2018-05-03T15:48:42.411Z,19.70
2018-05-03T15:51:16.200Z,19.90
2018-05-03T15:53:50.667Z,20.00
2018-05-03T15:56:25.162Z,19.80
2018-05-03T15:58:59.623Z,19.80
2018-05-03T16:01:33.383Z,20.10
2018-05-03T16:04:07.947Z,20.30
2018-05-03T16:06:41.964Z,20.20
2018-05-03T16:09:15.916Z,20.50
2018-05-03T16:11:50.482Z,20.50
2018-05-03T16:14:25.363Z,20.50
2018-05-03T16:17:00.030Z,20.50
2018-05-03T16:19:34.046Z,20.50
2018-05-03T16:22:09.183Z,20.20
2018-05-03T16:24:43.808Z,20.00
2018-05-03T16:27:17.819Z,20.00
2018-05-03T16:29:53.341Z,19.70
2018-05-03T16:32:28.658Z,19.60
2018-05-03T16:35:03.211Z,19.60
2018-05-03T16:37:38.344Z,19.60
2018-05-03T16:40:12.779Z,19.60
2018-05-03T16:42:47.902Z,19.30
2018-05-03T16:45:22.927Z,19.10
2018-05-03T16:47:57.333Z,19.00
2018-05-03T16:50:31.323Z,19.00
2018-05-03T16:53:06.660Z,18.90
2018-05-03T16:55:40.323Z,18.80
2018-05-03T16:58:14.228Z,18.70
2018-05-03T17:00:48.538Z,18.50
2018-05-03T17:03:22.943Z,18.40
2018-05-03T17:05:56.760Z,18.40
2018-05-03T17:08:30.355Z,18.30
2018-05-03T17:11:04.884Z,18.40
2018-05-03T17:13:39.430Z,18.30
2018-05-03T17:16:13.010Z,18.20
2018-05-03T17:18:47.501Z,18.20
2018-05-03T17:21:21.894Z,18.20
2018-05-03T17:23:56.323Z,18.20
2018-05-03T17:26:31.006Z,18.20
2018-05-03T17:29:05.674Z,18.10
2018-05-03T17:31:39.328Z,18.00
2018-05-03T17:34:13.003Z,18.10
2018-05-03T17:36:46.874Z,18.00
2018-05-03T17:39:20.507Z,18.00
2018-05-03T17:41:54.128Z,18.10
2018-05-03T17:44:28.043Z,18.00
2018-05-03T17:47:01.836Z,17.90
2018-05-03T17:49:35.897Z,17.90
2018-05-03T17:52:09.548Z,17.80
2018-05-03T17:54:43.547Z,17.60
2018-05-03T17:57:18.051Z,17.60
2018-05-03T17:59:52.791Z,17.70
2018-05-03T18:02:27.502Z,17.60
2018-05-03T18:05:01.949Z,17.60
2018-05-03T18:07:36.579Z,17.50
2018-05-03T18:10:10.994Z,17.50
2018-05-03T18:12:45.406Z,17.40
2018-05-03T18:15:19.178Z,17.40
2018-05-03T18:17:53.896Z,17.20
2018-05-03T18:20:28.686Z,17.20
2018-05-03T18:23:03.464Z,17.20
2018-05-03T18:25:37.310Z,17.10
2018-05-03T18:28:11.297Z,17.10
2018-05-03T18:30:45.501Z,17.00
2018-05-03T18:33:20.469Z,16.90
2018-05-03T18:35:54.832Z,16.90
2018-05-03T18:38:29.592Z,16.70
2018-05-03T18:41:05.644Z,16.70
2018-05-03T18:43:41.145Z,16.60
2018-05-03T18:46:17.919Z,16.60
2018-05-03T18:48:51.606Z,16.60
2018-05-03T18:51:26.119Z,16.40
2018-05-03T18:54:00.897Z,16.20
2018-05-03T18:56:34.532Z,16.20
2018-05-03T18:59:08.576Z,16.20
2018-05-03T19:01:42.607Z,16.10
2018-05-03T19:04:17.562Z,16.00
2018-05-03T19:06:52.015Z,15.90
2018-05-03T19:09:26.114Z,15.90
2018-05-03T19:12:00.904Z,15.90
2018-05-03T19:14:34.884Z,15.90
2018-05-03T19:17:09.544Z,15.80
2018-05-03T19:19:43.468Z,15.70
2018-05-03T19:22:20.934Z,15.80
2018-05-03T19:24:55.594Z,15.80
2018-05-03T19:27:30.239Z,15.80
2018-05-03T19:30:04.345Z,15.70
2018-05-03T19:32:38.130Z,15.70
2018-05-03T19:35:11.893Z,15.70
2018-05-03T19:37:46.623Z,15.70
2018-05-03T19:40:20.263Z,15.70
2018-05-03T19:42:54.695Z,15.70
2018-05-03T19:45:28.449Z,15.70
2018-05-03T19:48:02.397Z,15.70
2018-05-03T19:50:37.292Z,15.60
2018-05-03T19:53:12.362Z,15.50
2018-05-03T19:55:46.369Z,15.40
2018-05-03T19:58:20.431Z,15.40
2018-05-03T20:00:54.705Z,15.30
2018-05-03T20:03:28.969Z,15.30
2018-05-03T20:06:03.878Z,15.30
2018-05-03T20:08:37.739Z,15.20
2018-05-03T20:11:11.765Z,15.30
2018-05-03T20:13:45.960Z,15.40
2018-05-03T20:16:19.968Z,15.30
2018-05-03T20:18:54.607Z,15.30
2018-05-03T20:21:28.607Z,15.30
2018-05-03T20:24:02.566Z,15.40
2018-05-03T20:26:37.840Z,15.40
2018-05-03T20:29:11.507Z,15.40
2018-05-03T20:31:45.364Z,15.40
2018-05-03T20:34:19.892Z,15.30
2018-05-03T20:36:55.166Z,15.30
2018-05-03T20:39:29.538Z,15.30
2018-05-03T20:42:04.734Z,15.30
2018-05-03T20:44:39.090Z,15.30
2018-05-03T20:47:14.319Z,15.30
2018-05-03T20:49:48.234Z,15.30
2018-05-03T20:52:23.485Z,15.20
2018-05-03T20:54:57.966Z,15.20
2018-05-03T20:57:32.184Z,15.20
2018-05-03T21:00:06.048Z,15.10
2018-05-03T21:02:39.818Z,15.00
2018-05-03T21:05:15.023Z,14.80
2018-05-03T21:07:49.124Z,14.80
2018-05-03T21:10:23.937Z,14.80
2018-05-03T21:12:57.872Z,14.80
2018-05-03T21:15:32.053Z,14.70
2018-05-03T21:18:08.875Z,14.70
2018-05-03T21:20:43.842Z,14.70
2018-05-03T21:23:17.631Z,14.60
2018-05-03T21:25:53.182Z,14.50
2018-05-03T21:28:27.148Z,14.60
2018-05-03T21:31:01.927Z,14.50
2018-05-03T21:33:36.220Z,14.60
2018-05-03T21:36:10.337Z,14.60
2018-05-03T21:38:46.534Z,14.70
2018-05-03T21:41:20.491Z,14.70
2018-05-03T21:43:56.191Z,14.80
2018-05-03T21:46:30.167Z,14.70
2018-05-03T21:49:04.077Z,14.80
2018-05-03T21:51:38.164Z,14.80
2018-05-03T21:54:12.687Z,14.90
2018-05-03T21:56:48.609Z,14.90
2018-05-03T21:59:23.687Z,15.00
2018-05-03T22:01:58.448Z,14.90
2018-05-03T22:04:36.051Z,15.00
2018-05-03T22:07:10.027Z,15.00
2018-05-03T22:09:45.357Z,15.00
2018-05-03T22:12:19.788Z,15.00
2018-05-03T22:14:53.597Z,15.00
2018-05-03T22:17:28.573Z,15.00
2018-05-03T22:20:02.720Z,15.00
2018-05-03T22:22:36.876Z,15.00
2018-05-03T22:25:10.835Z,15.00
2018-05-03T22:27:44.671Z,15.00
2018-05-03T22:30:18.862Z,15.10
2018-05-03T22:32:54.511Z,15.00
2018-05-03T22:35:29.139Z,15.00
2018-05-03T22:38:04.928Z,15.00
2018-05-03T22:40:39.402Z,15.00
2018-05-03T22:43:15.769Z,14.90
2018-05-03T22:45:50.487Z,14.90
2018-05-03T22:48:25.009Z,14.90
2018-05-03T22:50:59.745Z,14.90
2018-05-03T22:53:33.952Z,14.90
2018-05-03T22:56:07.852Z,14.90
2018-05-03T22:58:41.572Z,14.80
2018-05-03T23:01:17.014Z,14.80
2018-05-03T23:03:51.556Z,14.80
2018-05-03T23:06:26.158Z,14.80
2018-05-03T23:08:59.955Z,14.80
2018-05-03T23:11:35.423Z,14.70
2018-05-03T23:14:09.408Z,14.70
2018-05-03T23:16:43.420Z,14.70
2018-05-03T23:19:17.624Z,14.70
2018-05-03T23:21:52.365Z,14.80
2018-05-03T23:24:26.990Z,14.80
2018-05-03T23:27:01.874Z,14.80
2018-05-03T23:29:35.735Z,14.80
2018-05-03T23:32:09.626Z,14.80
2018-05-03T23:34:44.817Z,14.80
2018-05-03T23:37:19.903Z,14.70
2018-05-03T23:39:55.868Z,14.70
2018-05-03T23:42:29.869Z,14.80
2018-05-03T23:45:03.713Z,14.80
2018-05-03T23:47:38.503Z,14.70
2018-05-03T23:50:13.311Z,14.60
2018-05-03T23:52:47.858Z,14.60
2018-05-03T23:55:23.043Z,14.50
2018-05-03T23:57:57.034Z,14.50
